sensor_id;sensor_type;location;lat;lon;timestamp;P1;durP1;ratioP1;P2;durP2;ratioP2
14516;SDS011;7344;50.864;4.362;2022-09-13T00:00:48;6.90;;;4.70;;
14516;SDS011;7344;50.864;4.362;2022-09-13T00:03:15;9.13;;;4.85;;
14516;SDS011;7344;50.864;4.362;2022-09-13T00:05:41;9.50;;;5.00;;
14516;SDS011;7344;50.864;4.362;2022-09-13T00:08:06;5.00;;;4.50;;
14516;SDS011;7344;50.864;4.362;2022-09-13T00:10:36;6.35;;;4.40;;
14516;SDS011;7344;50.864;4.362;2022-09-13T00:13:03;10.85;;;4.45;;
14516;SDS011;7344;50.864;4.362;2022-09-13T00:15:30;5.38;;;3.78;;
14516;SDS011;7344;50.864;4.362;2022-09-13T00:17:56;5.30;;;4.65;;
14516;SDS011;7344;50.864;4.362;2022-09-13T00:20:22;4.90;;;4.20;;
14516;SDS011;7344;50.864;4.362;2022-09-13T00:22:48;6.20;;;4.20;;
14516;SDS011;7344;50.864;4.362;2022-09-13T00:25:13;5.47;;;4.18;;
14516;SDS011;7344;50.864;4.362;2022-09-13T00:27:39;5.32;;;4.20;;
14516;SDS011;7344;50.864;4.362;2022-09-13T00:30:05;6.55;;;4.25;;
14516;SDS011;7344;50.864;4.362;2022-09-13T00:32:32;4.50;;;3.63;;
14516;SDS011;7344;50.864;4.362;2022-09-13T00:34:59;4.45;;;4.05;;
14516;SDS011;7344;50.864;4.362;2022-09-13T00:37:25;5.20;;;4.15;;
14516;SDS011;7344;50.864;4.362;2022-09-13T00:39:51;7.28;;;4.13;;
14516;SDS011;7344;50.864;4.362;2022-09-13T00:42:17;8.90;;;4.60;;
14516;SDS011;7344;50.864;4.362;2022-09-13T00:47:45;12.73;;;5.25;;
14516;SDS011;7344;50.864;4.362;2022-09-13T00:50:29;8.77;;;5.18;;
14516;SDS011;7344;50.864;4.362;2022-09-13T00:53:00;4.93;;;4.40;;
14516;SDS011;7344;50.864;4.362;2022-09-13T00:58:00;4.35;;;3.75;;
14516;SDS011;7344;50.864;4.362;2022-09-13T01:00:30;4.05;;;3.42;;
14516;SDS011;7344;50.864;4.362;2022-09-13T01:02:59;7.63;;;4.00;;
14516;SDS011;7344;50.864;4.362;2022-09-13T01:05:35;4.32;;;3.60;;
14516;SDS011;7344;50.864;4.362;2022-09-13T01:08:05;4.57;;;3.30;;
14516;SDS011;7344;50.864;4.362;2022-09-13T01:10:40;3.67;;;3.38;;
14516;SDS011;7344;50.864;4.362;2022-09-13T01:13:11;3.28;;;2.58;;
14516;SDS011;7344;50.864;4.362;2022-09-13T01:15:42;4.50;;;3.40;;
14516;SDS011;7344;50.864;4.362;2022-09-13T01:18:08;3.10;;;2.58;;
14516;SDS011;7344;50.864;4.362;2022-09-13T01:20:41;6.20;;;5.60;;
14516;SDS011;7344;50.864;4.362;2022-09-13T01:26:06;4.45;;;4.05;;
14516;SDS011;7344;50.864;4.362;2022-09-13T01:31:42;4.85;;;4.40;;
14516;SDS011;7344;50.864;4.362;2022-09-13T01:43:05;8.73;;;5.10;;
14516;SDS011;7344;50.864;4.362;2022-09-13T01:48:24;5.68;;;5.13;;
14516;SDS011;7344;50.864;4.362;2022-09-13T01:51:04;11.38;;;5.05;;
14516;SDS011;7344;50.864;4.362;2022-09-13T01:53:41;6.32;;;4.80;;
14516;SDS011;7344;50.864;4.362;2022-09-13T01:56:37;9.13;;;6.95;;
14516;SDS011;7344;50.864;4.362;2022-09-13T01:59:07;5.20;;;4.47;;
14516;SDS011;7344;50.864;4.362;2022-09-13T02:01:40;5.93;;;4.30;;
14516;SDS011;7344;50.864;4.362;2022-09-13T02:04:12;5.20;;;4.70;;
14516;SDS011;7344;50.864;4.362;2022-09-13T02:06:49;4.68;;;4.28;;
14516;SDS011;7344;50.864;4.362;2022-09-13T02:09:29;7.10;;;4.10;;
14516;SDS011;7344;50.864;4.362;2022-09-13T02:12:09;5.30;;;4.40;;
14516;SDS011;7344;50.864;4.362;2022-09-13T02:14:45;6.85;;;4.43;;
14516;SDS011;7344;50.864;4.362;2022-09-13T02:17:18;4.80;;;3.42;;
14516;SDS011;7344;50.864;4.362;2022-09-13T02:20:00;4.18;;;3.78;;
14516;SDS011;7344;50.864;4.362;2022-09-13T02:22:33;4.57;;;3.78;;
14516;SDS011;7344;50.864;4.362;2022-09-13T02:25:13;4.30;;;3.50;;
14516;SDS011;7344;50.864;4.362;2022-09-13T02:27:44;4.97;;;3.40;;
14516;SDS011;7344;50.864;4.362;2022-09-13T02:30:12;5.65;;;3.45;;
14516;SDS011;7344;50.864;4.362;2022-09-13T02:35:16;3.20;;;2.90;;
14516;SDS011;7344;50.864;4.362;2022-09-13T02:37:48;3.80;;;2.90;;
14516;SDS011;7344;50.864;4.362;2022-09-13T02:40:20;5.65;;;3.00;;
14516;SDS011;7344;50.864;4.362;2022-09-13T02:42:52;3.83;;;2.85;;
14516;SDS011;7344;50.864;4.362;2022-09-13T02:45:27;3.28;;;3.05;;
14516;SDS011;7344;50.864;4.362;2022-09-13T02:48:12;4.63;;;2.80;;
14516;SDS011;7344;50.864;4.362;2022-09-13T02:51:06;6.13;;;2.83;;
14516;SDS011;7344;50.864;4.362;2022-09-13T02:53:48;3.65;;;2.83;;
14516;SDS011;7344;50.864;4.362;2022-09-13T02:59:28;2.83;;;2.58;;
14516;SDS011;7344;50.864;4.362;2022-09-13T03:01:58;4.18;;;2.70;;
14516;SDS011;7344;50.864;4.362;2022-09-13T03:04:28;2.90;;;2.70;;
14516;SDS011;7344;50.864;4.362;2022-09-13T03:06:54;3.80;;;2.42;;
14516;SDS011;7344;50.864;4.362;2022-09-13T03:09:21;3.25;;;2.95;;
14516;SDS011;7344;50.864;4.362;2022-09-13T03:34:33;3.22;;;2.92;;
14516;SDS011;7344;50.864;4.362;2022-09-13T03:37:28;2.92;;;2.72;;
14516;SDS011;7344;50.864;4.362;2022-09-13T03:39:59;4.03;;;2.92;;
14516;SDS011;7344;50.864;4.362;2022-09-13T03:42:32;2.85;;;2.63;;
14516;SDS011;7344;50.864;4.362;2022-09-13T03:45:06;3.33;;;3.00;;
14516;SDS011;7344;50.864;4.362;2022-09-13T03:47:33;3.05;;;2.78;;
14516;SDS011;7344;50.864;4.362;2022-09-13T03:50:03;3.20;;;2.75;;
14516;SDS011;7344;50.864;4.362;2022-09-13T03:52:31;3.50;;;2.85;;
14516;SDS011;7344;50.864;4.362;2022-09-13T03:54:57;3.25;;;2.95;;
14516;SDS011;7344;50.864;4.362;2022-09-13T03:57:23;4.18;;;3.13;;
14516;SDS011;7344;50.864;4.362;2022-09-13T03:59:52;4.97;;;2.80;;
14516;SDS011;7344;50.864;4.362;2022-09-13T04:02:20;3.88;;;3.20;;
14516;SDS011;7344;50.864;4.362;2022-09-13T04:04:47;3.22;;;2.92;;
14516;SDS011;7344;50.864;4.362;2022-09-13T04:07:14;3.33;;;2.97;;
14516;SDS011;7344;50.864;4.362;2022-09-13T04:09:41;3.90;;;2.97;;
14516;SDS011;7344;50.864;4.362;2022-09-13T04:12:07;5.22;;;3.30;;
14516;SDS011;7344;50.864;4.362;2022-09-13T04:14:38;3.40;;;3.10;;
14516;SDS011;7344;50.864;4.362;2022-09-13T04:17:05;3.47;;;3.10;;
14516;SDS011;7344;50.864;4.362;2022-09-13T04:19:31;5.63;;;3.30;;
14516;SDS011;7344;50.864;4.362;2022-09-13T04:21:57;3.03;;;2.80;;
14516;SDS011;7344;50.864;4.362;2022-09-13T04:24:24;3.22;;;3.03;;
14516;SDS011;7344;50.864;4.362;2022-09-13T04:26:51;3.58;;;3.28;;
14516;SDS011;7344;50.864;4.362;2022-09-13T04:29:18;4.15;;;2.97;;
14516;SDS011;7344;50.864;4.362;2022-09-13T04:31:45;3.55;;;3.10;;
14516;SDS011;7344;50.864;4.362;2022-09-13T04:34:11;6.57;;;3.05;;
14516;SDS011;7344;50.864;4.362;2022-09-13T04:36:37;8.10;;;3.40;;
14516;SDS011;7344;50.864;4.362;2022-09-13T04:39:04;3.50;;;3.17;;
14516;SDS011;7344;50.864;4.362;2022-09-13T04:41:29;3.45;;;3.15;;
14516;SDS011;7344;50.864;4.362;2022-09-13T04:43:58;5.22;;;3.42;;
14516;SDS011;7344;50.864;4.362;2022-09-13T04:46:24;4.63;;;3.28;;
14516;SDS011;7344;50.864;4.362;2022-09-13T04:48:50;7.82;;;3.33;;
14516;SDS011;7344;50.864;4.362;2022-09-13T04:51:17;4.75;;;3.38;;
14516;SDS011;7344;50.864;4.362;2022-09-13T04:53:44;5.22;;;3.40;;
14516;SDS011;7344;50.864;4.362;2022-09-13T04:56:09;6.45;;;3.47;;
14516;SDS011;7344;50.864;4.362;2022-09-13T04:58:38;6.20;;;3.40;;
14516;SDS011;7344;50.864;4.362;2022-09-13T05:01:04;5.32;;;3.20;;
14516;SDS011;7344;50.864;4.362;2022-09-13T05:03:32;8.77;;;3.78;;
14516;SDS011;7344;50.864;4.362;2022-09-13T05:06:02;10.90;;;6.35;;
14516;SDS011;7344;50.864;4.362;2022-09-13T05:08:32;5.22;;;3.53;;
14516;SDS011;7344;50.864;4.362;2022-09-13T05:10:59;3.60;;;3.30;;
14516;SDS011;7344;50.864;4.362;2022-09-13T05:13:25;6.78;;;3.53;;
14516;SDS011;7344;50.864;4.362;2022-09-13T05:15:57;4.07;;;3.17;;
14516;SDS011;7344;50.864;4.362;2022-09-13T05:18:25;4.00;;;3.70;;
14516;SDS011;7344;50.864;4.362;2022-09-13T05:20:55;5.63;;;3.75;;
14516;SDS011;7344;50.864;4.362;2022-09-13T05:23:25;6.35;;;3.50;;
14516;SDS011;7344;50.864;4.362;2022-09-13T05:25:55;3.92;;;3.55;;
14516;SDS011;7344;50.864;4.362;2022-09-13T05:28:23;7.07;;;4.35;;
14516;SDS011;7344;50.864;4.362;2022-09-13T05:30:54;5.60;;;3.60;;
14516;SDS011;7344;50.864;4.362;2022-09-13T05:33:24;23.55;;;5.18;;
14516;SDS011;7344;50.864;4.362;2022-09-13T05:35:51;22.70;;;5.90;;
14516;SDS011;7344;50.864;4.362;2022-09-13T05:38:17;13.82;;;4.68;;
14516;SDS011;7344;50.864;4.362;2022-09-13T05:40:43;10.05;;;4.50;;
14516;SDS011;7344;50.864;4.362;2022-09-13T05:43:09;8.05;;;3.78;;
14516;SDS011;7344;50.864;4.362;2022-09-13T05:45:34;10.15;;;4.10;;
14516;SDS011;7344;50.864;4.362;2022-09-13T05:48:00;9.75;;;3.85;;
14516;SDS011;7344;50.864;4.362;2022-09-13T05:50:26;9.35;;;4.15;;
14516;SDS011;7344;50.864;4.362;2022-09-13T05:52:52;8.77;;;3.85;;
14516;SDS011;7344;50.864;4.362;2022-09-13T05:55:18;9.98;;;4.40;;
14516;SDS011;7344;50.864;4.362;2022-09-13T05:57:45;12.20;;;4.10;;
14516;SDS011;7344;50.864;4.362;2022-09-13T06:00:11;8.82;;;4.75;;
14516;SDS011;7344;50.864;4.362;2022-09-13T06:02:37;11.73;;;4.43;;
14516;SDS011;7344;50.864;4.362;2022-09-13T06:05:02;5.68;;;4.20;;
14516;SDS011;7344;50.864;4.362;2022-09-13T06:07:28;9.90;;;4.40;;
14516;SDS011;7344;50.864;4.362;2022-09-13T06:09:54;6.70;;;4.32;;
14516;SDS011;7344;50.864;4.362;2022-09-13T06:12:20;9.30;;;4.75;;
14516;SDS011;7344;50.864;4.362;2022-09-13T06:14:45;8.15;;;4.70;;
14516;SDS011;7344;50.864;4.362;2022-09-13T06:17:11;8.68;;;4.75;;
14516;SDS011;7344;50.864;4.362;2022-09-13T06:19:37;7.95;;;5.07;;
14516;SDS011;7344;50.864;4.362;2022-09-13T06:22:03;10.63;;;4.65;;
14516;SDS011;7344;50.864;4.362;2022-09-13T06:24:29;12.40;;;5.07;;
14516;SDS011;7344;50.864;4.362;2022-09-13T06:26:54;12.68;;;5.20;;
14516;SDS011;7344;50.864;4.362;2022-09-13T06:29:20;14.65;;;5.68;;
14516;SDS011;7344;50.864;4.362;2022-09-13T06:31:46;15.32;;;5.57;;
14516;SDS011;7344;50.864;4.362;2022-09-13T06:34:11;12.13;;;5.55;;
14516;SDS011;7344;50.864;4.362;2022-09-13T06:36:41;11.57;;;5.15;;
14516;SDS011;7344;50.864;4.362;2022-09-13T06:39:07;8.35;;;4.75;;
14516;SDS011;7344;50.864;4.362;2022-09-13T06:41:32;15.75;;;5.95;;
14516;SDS011;7344;50.864;4.362;2022-09-13T06:43:59;10.13;;;5.68;;
14516;SDS011;7344;50.864;4.362;2022-09-13T06:46:28;14.40;;;5.07;;
14516;SDS011;7344;50.864;4.362;2022-09-13T06:48:57;12.48;;;5.40;;
14516;SDS011;7344;50.864;4.362;2022-09-13T06:51:24;5.35;;;4.30;;
14516;SDS011;7344;50.864;4.362;2022-09-13T06:53:50;12.13;;;4.88;;
14516;SDS011;7344;50.864;4.362;2022-09-13T06:56:18;7.05;;;4.50;;
14516;SDS011;7344;50.864;4.362;2022-09-13T06:58:46;15.95;;;6.10;;
14516;SDS011;7344;50.864;4.362;2022-09-13T07:01:22;12.30;;;5.07;;
14516;SDS011;7344;50.864;4.362;2022-09-13T07:03:54;8.15;;;4.93;;
14516;SDS011;7344;50.864;4.362;2022-09-13T07:06:28;8.20;;;5.05;;
14516;SDS011;7344;50.864;4.362;2022-09-13T07:08:57;8.00;;;5.80;;
14516;SDS011;7344;50.864;4.362;2022-09-13T07:11:25;6.35;;;5.15;;
14516;SDS011;7344;50.864;4.362;2022-09-13T07:13:54;10.35;;;4.63;;
14516;SDS011;7344;50.864;4.362;2022-09-13T07:16:23;9.57;;;4.68;;
14516;SDS011;7344;50.864;4.362;2022-09-13T07:18:51;12.70;;;4.72;;
14516;SDS011;7344;50.864;4.362;2022-09-13T07:21:17;11.13;;;4.82;;
14516;SDS011;7344;50.864;4.362;2022-09-13T07:23:44;10.48;;;5.30;;
14516;SDS011;7344;50.864;4.362;2022-09-13T07:26:09;11.13;;;4.65;;
14516;SDS011;7344;50.864;4.362;2022-09-13T07:28:36;15.65;;;5.18;;
14516;SDS011;7344;50.864;4.362;2022-09-13T07:31:07;13.85;;;4.85;;
14516;SDS011;7344;50.864;4.362;2022-09-13T07:33:34;14.52;;;4.97;;
14516;SDS011;7344;50.864;4.362;2022-09-13T07:36:00;19.45;;;5.03;;
14516;SDS011;7344;50.864;4.362;2022-09-13T07:38:30;21.15;;;5.93;;
14516;SDS011;7344;50.864;4.362;2022-09-13T07:41:06;9.63;;;5.20;;
14516;SDS011;7344;50.864;4.362;2022-09-13T07:43:36;9.55;;;5.38;;
14516;SDS011;7344;50.864;4.362;2022-09-13T07:46:03;12.02;;;5.20;;
14516;SDS011;7344;50.864;4.362;2022-09-13T07:48:30;16.77;;;6.00;;
14516;SDS011;7344;50.864;4.362;2022-09-13T07:51:01;11.85;;;6.10;;
14516;SDS011;7344;50.864;4.362;2022-09-13T07:53:29;15.40;;;5.53;;
14516;SDS011;7344;50.864;4.362;2022-09-13T07:56:38;11.60;;;5.50;;
14516;SDS011;7344;50.864;4.362;2022-09-13T07:58:46;7.30;;;5.45;;
14516;SDS011;7344;50.864;4.362;2022-09-13T08:03:39;9.30;;;5.80;;
14516;SDS011;7344;50.864;4.362;2022-09-13T08:06:06;11.77;;;5.68;;
14516;SDS011;7344;50.864;4.362;2022-09-13T08:08:32;12.80;;;6.10;;
14516;SDS011;7344;50.864;4.362;2022-09-13T08:10:59;8.15;;;6.03;;
14516;SDS011;7344;50.864;4.362;2022-09-13T08:13:26;12.65;;;5.80;;
14516;SDS011;7344;50.864;4.362;2022-09-13T08:15:53;12.20;;;6.47;;
14516;SDS011;7344;50.864;4.362;2022-09-13T08:18:19;14.05;;;5.80;;
14516;SDS011;7344;50.864;4.362;2022-09-13T08:20:47;11.23;;;5.72;;
14516;SDS011;7344;50.864;4.362;2022-09-13T08:23:12;10.57;;;5.53;;
14516;SDS011;7344;50.864;4.362;2022-09-13T08:25:38;8.48;;;5.60;;
14516;SDS011;7344;50.864;4.362;2022-09-13T08:28:05;10.43;;;5.53;;
14516;SDS011;7344;50.864;4.362;2022-09-13T08:30:38;6.97;;;4.97;;
14516;SDS011;7344;50.864;4.362;2022-09-13T08:33:06;8.55;;;5.05;;
14516;SDS011;7344;50.864;4.362;2022-09-13T08:35:32;10.98;;;5.28;;
14516;SDS011;7344;50.864;4.362;2022-09-13T08:37:58;8.95;;;5.13;;
14516;SDS011;7344;50.864;4.362;2022-09-13T08:40:26;9.65;;;5.07;;
14516;SDS011;7344;50.864;4.362;2022-09-13T08:45:38;10.40;;;4.90;;
14516;SDS011;7344;50.864;4.362;2022-09-13T08:48:07;11.02;;;5.45;;
14516;SDS011;7344;50.864;4.362;2022-09-13T08:50:38;16.73;;;5.50;;
14516;SDS011;7344;50.864;4.362;2022-09-13T08:55:48;10.55;;;5.50;;
14516;SDS011;7344;50.864;4.362;2022-09-13T09:04:49;9.02;;;5.80;;
14516;SDS011;7344;50.864;4.362;2022-09-13T09:07:22;10.77;;;5.55;;
14516;SDS011;7344;50.864;4.362;2022-09-13T09:09:52;14.38;;;5.35;;
14516;SDS011;7344;50.864;4.362;2022-09-13T09:22:58;9.50;;;6.22;;
14516;SDS011;7344;50.864;4.362;2022-09-13T09:25:55;8.18;;;6.00;;
14516;SDS011;7344;50.864;4.362;2022-09-13T09:28:24;7.57;;;5.40;;
14516;SDS011;7344;50.864;4.362;2022-09-13T09:30:59;6.47;;;5.63;;
14516;SDS011;7344;50.864;4.362;2022-09-13T09:36:43;7.30;;;5.90;;
14516;SDS011;7344;50.864;4.362;2022-09-13T09:39:15;9.35;;;5.50;;
14516;SDS011;7344;50.864;4.362;2022-09-13T09:41:41;8.90;;;5.85;;
14516;SDS011;7344;50.864;4.362;2022-09-13T09:46:51;8.45;;;5.75;;
14516;SDS011;7344;50.864;4.362;2022-09-13T09:49:38;9.35;;;5.43;;
14516;SDS011;7344;50.864;4.362;2022-09-13T09:57:51;8.23;;;5.63;;
14516;SDS011;7344;50.864;4.362;2022-09-13T10:00:17;8.05;;;5.22;;
14516;SDS011;7344;50.864;4.362;2022-09-13T10:02:44;9.73;;;5.85;;
14516;SDS011;7344;50.864;4.362;2022-09-13T10:05:11;15.93;;;10.00;;
14516;SDS011;7344;50.864;4.362;2022-09-13T10:07:42;10.30;;;5.95;;
14516;SDS011;7344;50.864;4.362;2022-09-13T10:10:18;11.20;;;4.95;;
14516;SDS011;7344;50.864;4.362;2022-09-13T10:12:51;8.68;;;4.90;;
14516;SDS011;7344;50.864;4.362;2022-09-13T10:15:21;9.05;;;4.90;;
14516;SDS011;7344;50.864;4.362;2022-09-13T10:18:00;7.70;;;4.07;;
14516;SDS011;7344;50.864;4.362;2022-09-13T10:20:40;9.90;;;4.60;;
14516;SDS011;7344;50.864;4.362;2022-09-13T10:25:57;7.60;;;4.80;;
14516;SDS011;7344;50.864;4.362;2022-09-13T10:28:25;12.57;;;5.10;;
14516;SDS011;7344;50.864;4.362;2022-09-13T10:30:52;11.60;;;4.68;;
14516;SDS011;7344;50.864;4.362;2022-09-13T10:38:46;14.70;;;6.47;;
14516;SDS011;7344;50.864;4.362;2022-09-13T10:41:23;8.27;;;5.82;;
14516;SDS011;7344;50.864;4.362;2022-09-13T10:43:55;11.02;;;5.47;;
14516;SDS011;7344;50.864;4.362;2022-09-13T10:46:26;12.95;;;5.35;;
14516;SDS011;7344;50.864;4.362;2022-09-13T10:48:55;9.65;;;5.10;;
14516;SDS011;7344;50.864;4.362;2022-09-13T10:54:17;9.75;;;4.85;;
14516;SDS011;7344;50.864;4.362;2022-09-13T10:56:47;11.10;;;4.90;;
14516;SDS011;7344;50.864;4.362;2022-09-13T11:09:30;7.15;;;4.43;;
14516;SDS011;7344;50.864;4.362;2022-09-13T11:12:04;10.65;;;5.32;;
14516;SDS011;7344;50.864;4.362;2022-09-13T11:14:53;9.38;;;5.78;;
14516;SDS011;7344;50.864;4.362;2022-09-13T11:25:50;7.40;;;5.35;;
14516;SDS011;7344;50.864;4.362;2022-09-13T11:28:24;8.63;;;5.10;;
14516;SDS011;7344;50.864;4.362;2022-09-13T11:31:14;5.88;;;5.30;;
14516;SDS011;7344;50.864;4.362;2022-09-13T11:34:15;10.35;;;5.25;;
14516;SDS011;7344;50.864;4.362;2022-09-13T11:39:52;6.60;;;5.20;;
14516;SDS011;7344;50.864;4.362;2022-09-13T11:42:41;6.60;;;4.85;;
14516;SDS011;7344;50.864;4.362;2022-09-13T11:47:47;9.38;;;5.35;;
14516;SDS011;7344;50.864;4.362;2022-09-13T11:56:02;5.95;;;5.35;;
14516;SDS011;7344;50.864;4.362;2022-09-13T11:58:35;7.95;;;6.18;;
14516;SDS011;7344;50.864;4.362;2022-09-13T12:01:30;4.68;;;4.28;;
14516;SDS011;7344;50.864;4.362;2022-09-13T12:04:05;7.45;;;4.70;;
14516;SDS011;7344;50.864;4.362;2022-09-13T12:06:59;5.30;;;4.75;;
14516;SDS011;7344;50.864;4.362;2022-09-13T12:09:29;6.50;;;4.80;;
14516;SDS011;7344;50.864;4.362;2022-09-13T12:14:29;7.45;;;5.15;;
14516;SDS011;7344;50.864;4.362;2022-09-13T12:20:02;7.45;;;4.68;;
14516;SDS011;7344;50.864;4.362;2022-09-13T12:22:37;12.18;;;5.68;;
14516;SDS011;7344;50.864;4.362;2022-09-13T12:25:06;10.73;;;4.80;;
14516;SDS011;7344;50.864;4.362;2022-09-13T12:27:47;6.60;;;3.53;;
14516;SDS011;7344;50.864;4.362;2022-09-13T12:30:41;4.72;;;3.55;;
14516;SDS011;7344;50.864;4.362;2022-09-13T12:33:16;5.30;;;3.38;;
14516;SDS011;7344;50.864;4.362;2022-09-13T12:41:49;8.05;;;4.65;;
14516;SDS011;7344;50.864;4.362;2022-09-13T12:50:01;5.32;;;4.25;;
14516;SDS011;7344;50.864;4.362;2022-09-13T12:52:42;6.15;;;4.03;;
14516;SDS011;7344;50.864;4.362;2022-09-13T12:55:37;9.55;;;6.10;;
14516;SDS011;7344;50.864;4.362;2022-09-13T13:03:22;6.40;;;4.72;;
14516;SDS011;7344;50.864;4.362;2022-09-13T13:06:40;5.22;;;4.43;;
14516;SDS011;7344;50.864;4.362;2022-09-13T13:08:50;4.40;;;4.03;;
14516;SDS011;7344;50.864;4.362;2022-09-13T13:11:19;8.75;;;4.55;;
14516;SDS011;7344;50.864;4.362;2022-09-13T13:19:02;6.90;;;5.85;;
14516;SDS011;7344;50.864;4.362;2022-09-13T13:21:31;8.85;;;5.93;;
14516;SDS011;7344;50.864;4.362;2022-09-13T13:29:19;6.10;;;4.43;;
14516;SDS011;7344;50.864;4.362;2022-09-13T13:42:03;5.97;;;4.22;;
14516;SDS011;7344;50.864;4.362;2022-09-13T13:49:43;5.35;;;4.60;;
14516;SDS011;7344;50.864;4.362;2022-09-13T13:54:58;6.60;;;5.95;;
14516;SDS011;7344;50.864;4.362;2022-09-13T13:57:32;6.20;;;5.43;;
14516;SDS011;7344;50.864;4.362;2022-09-13T14:00:06;6.80;;;6.18;;
14516;SDS011;7344;50.864;4.362;2022-09-13T14:14:39;3.25;;;2.95;;
14516;SDS011;7344;50.864;4.362;2022-09-13T14:20:27;5.43;;;3.60;;
14516;SDS011;7344;50.864;4.362;2022-09-13T14:23:15;7.28;;;3.72;;
14516;SDS011;7344;50.864;4.362;2022-09-13T14:25:42;7.32;;;4.00;;
14516;SDS011;7344;50.864;4.362;2022-09-13T14:28:11;4.88;;;3.95;;
14516;SDS011;7344;50.864;4.362;2022-09-13T14:30:41;9.35;;;5.28;;
14516;SDS011;7344;50.864;4.362;2022-09-13T14:33:17;8.50;;;5.68;;
14516;SDS011;7344;50.864;4.362;2022-09-13T14:35:55;7.57;;;5.28;;
14516;SDS011;7344;50.864;4.362;2022-09-13T14:38:26;8.30;;;5.03;;
14516;SDS011;7344;50.864;4.362;2022-09-13T14:40:58;7.30;;;5.03;;
14516;SDS011;7344;50.864;4.362;2022-09-13T14:43:44;7.20;;;5.97;;
14516;SDS011;7344;50.864;4.362;2022-09-13T14:54:24;9.43;;;7.60;;
14516;SDS011;7344;50.864;4.362;2022-09-13T14:56:59;7.63;;;5.63;;
14516;SDS011;7344;50.864;4.362;2022-09-13T15:05:04;6.47;;;5.53;;
14516;SDS011;7344;50.864;4.362;2022-09-13T15:07:36;6.53;;;5.85;;
14516;SDS011;7344;50.864;4.362;2022-09-13T15:15:26;8.15;;;6.50;;
14516;SDS011;7344;50.864;4.362;2022-09-13T15:18:03;7.88;;;6.38;;
14516;SDS011;7344;50.864;4.362;2022-09-13T15:20:55;6.90;;;6.30;;
14516;SDS011;7344;50.864;4.362;2022-09-13T15:23:32;15.02;;;7.25;;
14516;SDS011;7344;50.864;4.362;2022-09-13T15:28:31;9.63;;;7.30;;
14516;SDS011;7344;50.864;4.362;2022-09-13T15:31:10;9.45;;;7.57;;
14516;SDS011;7344;50.864;4.362;2022-09-13T15:33:43;11.77;;;7.78;;
14516;SDS011;7344;50.864;4.362;2022-09-13T15:41:49;10.25;;;9.20;;
14516;SDS011;7344;50.864;4.362;2022-09-13T15:44:15;12.15;;;9.30;;
14516;SDS011;7344;50.864;4.362;2022-09-13T15:46:48;14.95;;;9.50;;
14516;SDS011;7344;50.864;4.362;2022-09-13T15:49:20;10.02;;;9.10;;
14516;SDS011;7344;50.864;4.362;2022-09-13T15:51:51;17.85;;;10.00;;
14516;SDS011;7344;50.864;4.362;2022-09-13T15:54:18;11.63;;;10.40;;
14516;SDS011;7344;50.864;4.362;2022-09-13T15:56:46;14.10;;;10.00;;
14516;SDS011;7344;50.864;4.362;2022-09-13T15:59:16;11.00;;;9.82;;
14516;SDS011;7344;50.864;4.362;2022-09-13T16:01:43;12.07;;;9.75;;
14516;SDS011;7344;50.864;4.362;2022-09-13T16:04:10;14.02;;;9.50;;
14516;SDS011;7344;50.864;4.362;2022-09-13T16:06:36;12.00;;;9.50;;
14516;SDS011;7344;50.864;4.362;2022-09-13T16:09:22;12.10;;;10.10;;
14516;SDS011;7344;50.864;4.362;2022-09-13T16:11:49;14.45;;;10.63;;
14516;SDS011;7344;50.864;4.362;2022-09-13T16:14:16;11.57;;;10.00;;
14516;SDS011;7344;50.864;4.362;2022-09-13T16:16:43;15.45;;;11.13;;
14516;SDS011;7344;50.864;4.362;2022-09-13T16:19:12;14.18;;;11.40;;
14516;SDS011;7344;50.864;4.362;2022-09-13T16:21:40;13.77;;;11.52;;
14516;SDS011;7344;50.864;4.362;2022-09-13T16:24:05;14.63;;;11.73;;
14516;SDS011;7344;50.864;4.362;2022-09-13T16:26:31;15.18;;;12.88;;
14516;SDS011;7344;50.864;4.362;2022-09-13T16:28:57;12.15;;;9.98;;
14516;SDS011;7344;50.864;4.362;2022-09-13T16:31:23;13.02;;;10.93;;
14516;SDS011;7344;50.864;4.362;2022-09-13T16:33:49;11.10;;;9.90;;
14516;SDS011;7344;50.864;4.362;2022-09-13T16:36:15;13.50;;;9.77;;
14516;SDS011;7344;50.864;4.362;2022-09-13T16:38:40;13.05;;;10.00;;
14516;SDS011;7344;50.864;4.362;2022-09-13T16:41:06;12.57;;;10.45;;
14516;SDS011;7344;50.864;4.362;2022-09-13T16:43:32;11.93;;;10.52;;
14516;SDS011;7344;50.864;4.362;2022-09-13T16:45:58;17.60;;;11.23;;
14516;SDS011;7344;50.864;4.362;2022-09-13T16:48:29;15.00;;;12.30;;
14516;SDS011;7344;50.864;4.362;2022-09-13T16:51:00;15.13;;;12.23;;
14516;SDS011;7344;50.864;4.362;2022-09-13T16:53:29;14.57;;;13.07;;
14516;SDS011;7344;50.864;4.362;2022-09-13T16:56:03;18.35;;;14.23;;
14516;SDS011;7344;50.864;4.362;2022-09-13T16:58:34;17.02;;;15.25;;
14516;SDS011;7344;50.864;4.362;2022-09-13T17:01:02;20.05;;;16.77;;
14516;SDS011;7344;50.864;4.362;2022-09-13T17:03:32;18.20;;;15.65;;
14516;SDS011;7344;50.864;4.362;2022-09-13T17:06:00;20.00;;;17.13;;
14516;SDS011;7344;50.864;4.362;2022-09-13T17:08:31;17.13;;;14.90;;
14516;SDS011;7344;50.864;4.362;2022-09-13T17:10:57;15.93;;;14.35;;
14516;SDS011;7344;50.864;4.362;2022-09-13T17:13:23;14.63;;;13.15;;
14516;SDS011;7344;50.864;4.362;2022-09-13T17:15:49;18.02;;;16.13;;
14516;SDS011;7344;50.864;4.362;2022-09-13T17:18:15;24.98;;;21.08;;
14516;SDS011;7344;50.864;4.362;2022-09-13T17:20:42;19.17;;;15.60;;
14516;SDS011;7344;50.864;4.362;2022-09-13T17:23:12;16.95;;;15.18;;
14516;SDS011;7344;50.864;4.362;2022-09-13T17:25:42;22.13;;;19.23;;
14516;SDS011;7344;50.864;4.362;2022-09-13T17:28:11;18.73;;;16.77;;
14516;SDS011;7344;50.864;4.362;2022-09-13T17:30:37;21.85;;;18.75;;
14516;SDS011;7344;50.864;4.362;2022-09-13T17:33:02;19.83;;;16.63;;
14516;SDS011;7344;50.864;4.362;2022-09-13T17:35:29;31.27;;;24.17;;
14516;SDS011;7344;50.864;4.362;2022-09-13T17:37:56;22.92;;;20.40;;
14516;SDS011;7344;50.864;4.362;2022-09-13T17:40:22;13.63;;;11.43;;
14516;SDS011;7344;50.864;4.362;2022-09-13T17:42:47;14.13;;;12.20;;
14516;SDS011;7344;50.864;4.362;2022-09-13T17:45:14;15.95;;;14.07;;
14516;SDS011;7344;50.864;4.362;2022-09-13T17:47:39;16.75;;;15.18;;
14516;SDS011;7344;50.864;4.362;2022-09-13T17:50:05;17.52;;;15.70;;
14516;SDS011;7344;50.864;4.362;2022-09-13T17:52:31;22.10;;;17.10;;
14516;SDS011;7344;50.864;4.362;2022-09-13T17:54:57;21.45;;;19.13;;
14516;SDS011;7344;50.864;4.362;2022-09-13T17:57:23;18.08;;;16.23;;
14516;SDS011;7344;50.864;4.362;2022-09-13T17:59:49;14.90;;;13.00;;
14516;SDS011;7344;50.864;4.362;2022-09-13T18:02:15;14.90;;;13.43;;
14516;SDS011;7344;50.864;4.362;2022-09-13T18:04:41;15.55;;;13.73;;
14516;SDS011;7344;50.864;4.362;2022-09-13T18:07:06;16.70;;;14.70;;
14516;SDS011;7344;50.864;4.362;2022-09-13T18:09:32;16.75;;;14.55;;
14516;SDS011;7344;50.864;4.362;2022-09-13T18:11:57;15.88;;;14.18;;
14516;SDS011;7344;50.864;4.362;2022-09-13T18:14:23;21.55;;;17.65;;
14516;SDS011;7344;50.864;4.362;2022-09-13T18:16:50;20.58;;;17.75;;
14516;SDS011;7344;50.864;4.362;2022-09-13T18:19:20;19.00;;;16.48;;
14516;SDS011;7344;50.864;4.362;2022-09-13T18:21:47;29.55;;;25.42;;
14516;SDS011;7344;50.864;4.362;2022-09-13T18:24:12;21.00;;;17.27;;
14516;SDS011;7344;50.864;4.362;2022-09-13T18:26:38;19.40;;;14.68;;
14516;SDS011;7344;50.864;4.362;2022-09-13T18:29:04;18.65;;;15.18;;
14516;SDS011;7344;50.864;4.362;2022-09-13T18:31:33;22.38;;;18.25;;
14516;SDS011;7344;50.864;4.362;2022-09-13T18:34:01;17.83;;;15.68;;
14516;SDS011;7344;50.864;4.362;2022-09-13T18:36:28;19.38;;;17.02;;
14516;SDS011;7344;50.864;4.362;2022-09-13T18:38:57;20.00;;;15.60;;
14516;SDS011;7344;50.864;4.362;2022-09-13T18:41:23;16.33;;;14.23;;
14516;SDS011;7344;50.864;4.362;2022-09-13T18:43:51;21.70;;;13.88;;
14516;SDS011;7344;50.864;4.362;2022-09-13T18:46:19;15.18;;;13.05;;
14516;SDS011;7344;50.864;4.362;2022-09-13T18:48:48;16.50;;;13.40;;
14516;SDS011;7344;50.864;4.362;2022-09-13T18:51:19;13.95;;;12.23;;
14516;SDS011;7344;50.864;4.362;2022-09-13T18:53:46;17.80;;;15.63;;